Time;durP1;ratioP1;P1;durP2;ratioP2;P2;SDS_P1;SDS_P2;PMS_P1;PMS_P2;Temp;Humidity;BMP_temperature;BMP_pressure;BME280_temperature;BME280_humidity;BME280_pressure;Samples;Min_cycle;Max_cycle;Signal;HPM_P1;HPM_P2
2024/01/07 00:00:08;;;;;;;;;;;22.50;40.00;;;;;;5075715;28;19924;-53
2024/01/07 00:02:36;;;;;;;;;;;22.50;40.00;;;;;;5075523;28;19932;-55
2024/01/07 00:05:03;;;;;;;;;;;22.50;40.00;;;;;;5075889;28;19928;-56
2024/01/07 00:07:30;;;;;;;;;;;22.50;40.00;;;;;;5075326;28;19931;-57
2024/01/07 00:09:57;;;;;;;;;;;22.50;40.00;;;;;;5075255;28;19924;-56
2024/01/07 00:12:25;;;;;;;;;;;22.50;40.00;;;;;;5075716;28;19924;-59
2024/01/07 00:14:52;;;;;;;;;;;22.50;40.00;;;;;;5075494;28;19924;-55
2024/01/07 00:17:19;;;;;;;;;;;22.50;40.00;;;;;;5075114;28;19928;-56
2024/01/07 00:19:45;;;;;;;;;;;22.50;40.00;;;;;;5075704;28;19963;-56
2024/01/07 00:22:12;;;;;;;;;;;22.50;40.00;;;;;;5075221;28;20031;-56
2024/01/07 00:24:39;;;;;;;;;;;22.50;40.00;;;;;;5075264;28;19924;-55
2024/01/07 00:27:08;;;;;;;;;;;22.50;40.00;;;;;;5074877;28;19970;-56
2024/01/07 00:29:35;;;;;;;;;;;22.50;40.00;;;;;;5074753;28;19925;-54
2024/01/07 00:32:02;;;;;;;;;;;22.50;40.00;;;;;;5075218;28;19931;-55
2024/01/07 00:34:29;;;;;;;;;;;22.50;40.00;;;;;;5075162;28;19928;-56
2024/01/07 00:36:57;;;;;;;;;;;22.50;40.00;;;;;;5075138;28;20337;-55
2024/01/07 00:39:24;;;;;;;;;;;22.50;40.00;;;;;;5074960;28;20494;-56
2024/01/07 00:41:51;;;;;;;;;;;22.50;40.00;;;;;;5075137;28;20011;-56
2024/01/07 00:44:18;;;;;;;;;;;22.50;40.10;;;;;;5074734;28;19978;-56
2024/01/07 00:46:45;;;;;;;;;;;22.50;40.00;;;;;;5074808;28;20370;-56
2024/01/07 00:49:14;;;;;;;;;;;22.50;40.00;;;;;;5057295;28;19929;-56
2024/01/07 00:51:42;;;;;;;;;;;22.50;40.00;;;;;;5074947;28;19948;-55
2024/01/07 00:54:09;;;;;;;;;;;22.50;40.10;;;;;;5074611;28;19924;-56
2024/01/07 00:56:36;;;;;;;;;;;22.50;40.10;;;;;;5074396;28;19924;-56
2024/01/07 00:59:03;;;;;;;;;;;22.50;40.10;;;;;;5074272;28;19970;-56
2024/01/07 01:01:30;;;;;;;;;;;22.50;40.10;;;;;;5074341;28;19932;-53
2024/01/07 01:03:57;;;;;;;;;;;22.50;40.10;;;;;;5074166;28;19925;-58
2024/01/07 01:06:25;;;;;;;;;;;22.50;40.10;;;;;;5074816;28;20297;-59
2024/01/07 01:08:52;;;;;;;;;;;22.50;40.10;;;;;;5074636;28;19955;-66
2024/01/07 01:11:19;;;;;;;;;;;22.50;40.10;;;;;;5074534;28;19932;-60
2024/01/07 01:13:46;;;;;;;;;;;22.50;40.20;;;;;;5074193;28;20016;-54
2024/01/07 01:16:13;;;;;;;;;;;22.50;40.10;;;;;;5074375;28;19929;-59
2024/01/07 01:18:40;;;;;;;;;;;22.50;40.10;;;;;;5074049;28;19925;-63
2024/01/07 01:21:07;;;;;;;;;;;22.50;40.10;;;;;;5073863;28;19924;-62
2024/01/07 01:23:34;;;;;;;;;;;22.50;40.00;;;;;;5073796;28;20401;-64
2024/01/07 01:26:01;;;;;;;;;;;22.50;40.10;;;;;;5074339;28;19925;-61
2024/01/07 01:28:28;;;;;;;;;;;22.50;40.00;;;;;;5074087;28;19925;-61
2024/01/07 01:30:55;;;;;;;;;;;22.50;40.10;;;;;;5074324;28;19924;-57
2024/01/07 01:33:23;;;;;;;;;;;22.50;40.10;;;;;;5073933;28;19935;-62
2024/01/07 01:35:50;;;;;;;;;;;22.50;40.10;;;;;;5073702;28;19968;-61
2024/01/07 01:38:17;;;;;;;;;;;22.50;40.10;;;;;;5073336;28;19930;-62
2024/01/07 01:40:43;;;;;;;;;;;22.50;40.10;;;;;;5073989;28;19931;-65
2024/01/07 01:43:10;;;;;;;;;;;22.50;40.10;;;;;;5056112;28;19931;-60
2024/01/07 01:45:37;;;;;;;;;;;22.40;40.00;;;;;;5073721;28;19924;-63
2024/01/07 01:48:05;;;;;;;;;;;22.40;40.00;;;;;;5073985;28;19930;-58
2024/01/07 01:50:32;;;;;;;;;;;22.40;40.10;;;;;;5073969;28;19930;-59
2024/01/07 01:52:59;;;;;;;;;;;22.40;40.10;;;;;;5073604;28;20432;-60
2024/01/07 01:55:26;;;;;;;;;;;22.40;40.00;;;;;;5073503;28;19928;-62
2024/01/07 01:57:54;;;;;;;;;;;22.40;40.10;;;;;;5073448;28;19925;-56
2024/01/07 02:00:21;;;;;;;;;;;22.50;40.10;;;;;;5073562;28;19924;-55
2024/01/07 02:02:48;;;;;;;;;;;22.40;40.10;;;;;;5073667;28;20012;-57
2024/01/07 02:05:15;;;;;;;;;;;22.40;40.10;;;;;;5073207;28;19929;-55
2024/01/07 02:07:42;;;;;;;;;;;22.40;40.10;;;;;;5073256;28;19935;-57
2024/01/07 02:10:09;;;;;;;;;;;22.40;40.10;;;;;;5073512;28;19924;-57
2024/01/07 02:12:35;;;;;;;;;;;22.40;40.10;;;;;;5073191;28;19928;-56
2024/01/07 02:15:03;;;;;;;;;;;22.40;40.10;;;;;;5073132;28;19931;-51
2024/01/07 02:17:30;;;;;;;;;;;22.40;40.10;;;;;;5073160;28;19924;-56
2024/01/07 02:19:57;;;;;;;;;;;22.40;40.20;;;;;;5073364;28;19924;-56
2024/01/07 02:22:24;;;;;;;;;;;22.40;40.10;;;;;;5073342;28;20288;-57
2024/01/07 02:24:53;;;;;;;;;;;22.40;40.10;;;;;;5073315;28;20275;-57
2024/01/07 02:27:20;;;;;;;;;;;22.40;40.10;;;;;;5073116;28;19932;-57
2024/01/07 02:29:47;;;;;;;;;;;22.40;40.10;;;;;;5073387;28;19931;-54
2024/01/07 02:32:14;;;;;;;;;;;22.40;40.10;;;;;;5073212;28;19924;-54
2024/01/07 02:34:41;;;;;;;;;;;22.40;40.10;;;;;;5073342;28;19967;-57
2024/01/07 02:37:08;;;;;;;;;;;22.40;40.10;;;;;;5072840;28;19925;-56
2024/01/07 02:39:35;;;;;;;;;;;22.40;40.10;;;;;;5073193;28;20324;-54
2024/01/07 02:42:02;;;;;;;;;;;22.40;40.10;;;;;;5073248;28;20435;-54
2024/01/07 02:44:29;;;;;;;;;;;22.40;40.10;;;;;;5072931;28;19964;-57
2024/01/07 02:46:56;;;;;;;;;;;22.40;40.10;;;;;;5073059;28;19975;-54
2024/01/07 02:49:23;;;;;;;;;;;22.40;40.10;;;;;;5075481;28;20096;-56
2024/01/07 02:51:50;;;;;;;;;;;22.40;40.20;;;;;;5076991;28;19972;-56
2024/01/07 02:54:17;;;;;;;;;;;22.40;40.10;;;;;;5077053;28;19932;-57
2024/01/07 02:56:44;;;;;;;;;;;22.40;40.10;;;;;;5076908;28;19971;-56
2024/01/07 02:59:11;;;;;;;;;;;22.40;40.10;;;;;;5076835;28;20020;-56
2024/01/07 03:01:42;;;;;;;;;;;22.40;40.20;;;;;;5076987;28;19924;-54
2024/01/07 03:04:10;;;;;;;;;;;22.40;40.20;;;;;;5077000;28;19977;-57
2024/01/07 03:06:37;;;;;;;;;;;22.40;40.20;;;;;;5058979;28;19924;-55
2024/01/07 03:09:04;;;;;;;;;;;22.40;40.20;;;;;;5076594;28;19924;-56
2024/01/07 03:11:31;;;;;;;;;;;22.40;40.20;;;;;;5076942;28;20328;-57
2024/01/07 03:13:58;;;;;;;;;;;22.40;40.20;;;;;;5076463;28;19924;-55
2024/01/07 03:16:26;;;;;;;;;;;22.40;40.20;;;;;;5076356;28;20019;-58
2024/01/07 03:18:53;;;;;;;;;;;22.40;40.20;;;;;;5076350;28;19932;-55
2024/01/07 03:21:21;;;;;;;;;;;22.40;40.20;;;;;;5058664;28;19924;-56
2024/01/07 03:23:48;;;;;;;;;;;22.40;40.20;;;;;;5075905;28;19925;-56
2024/01/07 03:26:16;;;;;;;;;;;22.40;40.20;;;;;;5076323;28;19929;-57
2024/01/07 03:28:44;;;;;;;;;;;22.30;40.10;;;;;;5075462;28;21692;-56
2024/01/07 03:31:13;;;;;;;;;;;22.40;40.20;;;;;;5076308;28;19955;-57
2024/01/07 03:33:40;;;;;;;;;;;22.40;40.10;;;;;;5076397;28;20297;-55
2024/01/07 03:36:12;;;;;;;;;;;22.40;40.20;;;;;;5058403;28;20011;-56
2024/01/07 03:38:40;;;;;;;;;;;22.40;40.20;;;;;;5076434;28;20276;-57
2024/01/07 03:41:07;;;;;;;;;;;22.40;40.20;;;;;;5075932;28;20304;-57
2024/01/07 03:43:34;;;;;;;;;;;22.40;40.10;;;;;;5075975;28;19929;-54
2024/01/07 03:46:01;;;;;;;;;;;22.40;40.10;;;;;;5076177;28;19929;-57
2024/01/07 03:48:28;;;;;;;;;;;22.40;40.20;;;;;;5076118;28;19971;-57
2024/01/07 03:50:55;;;;;;;;;;;22.40;40.10;;;;;;5076231;28;19974;-57
2024/01/07 03:53:23;;;;;;;;;;;22.40;40.10;;;;;;5075891;28;20038;-57
2024/01/07 03:55:50;;;;;;;;;;;22.40;40.20;;;;;;5075925;28;19931;-57
2024/01/07 03:58:17;;;;;;;;;;;22.40;40.10;;;;;;5075485;28;19924;-56
2024/01/07 04:00:44;;;;;;;;;;;22.30;40.10;;;;;;5075341;28;20270;-57
2024/01/07 04:03:11;;;;;;;;;;;22.40;40.20;;;;;;5075584;28;19925;-55
2024/01/07 04:05:38;;;;;;;;;;;22.40;40.10;;;;;;5075687;28;19947;-57
2024/01/07 04:08:05;;;;;;;;;;;22.30;40.10;;;;;;5075844;28;19979;-56
2024/01/07 04:10:32;;;;;;;;;;;22.40;40.10;;;;;;5075755;28;19978;-56
2024/01/07 04:12:59;;;;;;;;;;;22.30;40.10;;;;;;5075779;28;20033;-57
2024/01/07 04:15:26;;;;;;;;;;;22.40;40.20;;;;;;5075513;28;19985;-55
2024/01/07 04:17:53;;;;;;;;;;;22.30;40.10;;;;;;5075727;28;20265;-57
2024/01/07 04:20:20;;;;;;;;;;;22.30;40.10;;;;;;5057489;28;19924;-56
2024/01/07 04:22:47;;;;;;;;;;;22.30;40.10;;;;;;5057462;28;19977;-56
2024/01/07 04:25:14;;;;;;;;;;;22.30;40.10;;;;;;5075317;28;20011;-57
2024/01/07 04:27:41;;;;;;;;;;;22.30;40.10;;;;;;5075132;28;19935;-57
2024/01/07 04:30:09;;;;;;;;;;;22.30;40.10;;;;;;5074913;28;19924;-56
2024/01/07 04:32:36;;;;;;;;;;;22.30;40.10;;;;;;5075376;28;19928;-58
2024/01/07 04:35:03;;;;;;;;;;;22.30;40.10;;;;;;5075034;28;20011;-55
2024/01/07 04:37:30;;;;;;;;;;;22.30;40.10;;;;;;5075440;28;20312;-56
2024/01/07 04:39:57;;;;;;;;;;;22.30;40.00;;;;;;5075172;28;19924;-56
2024/01/07 04:42:24;;;;;;;;;;;22.30;40.00;;;;;;5075290;28;19924;-56
2024/01/07 04:44:51;;;;;;;;;;;22.30;39.80;;;;;;5074787;28;19924;-53
2024/01/07 04:47:27;;;;;;;;;;;22.40;39.80;;;;;;5074822;28;19946;-57
2024/01/07 04:49:54;;;;;;;;;;;22.40;39.70;;;;;;5074658;28;19925;-54
2024/01/07 04:52:22;;;;;;;;;;;22.40;39.70;;;;;;5074921;28;20024;-56
2024/01/07 04:54:53;;;;;;;;;;;22.40;40.20;;;;;;5074455;28;19924;-57
2024/01/07 04:57:20;;;;;;;;;;;22.30;39.60;;;;;;5074483;28;20019;-54
2024/01/07 04:59:47;;;;;;;;;;;22.30;39.60;;;;;;5074410;28;20008;-56
2024/01/07 05:02:14;;;;;;;;;;;22.30;39.60;;;;;;5074548;28;19924;-56
2024/01/07 05:04:41;;;;;;;;;;;22.30;39.60;;;;;;5074071;28;20296;-58
2024/01/07 05:07:08;;;;;;;;;;;22.30;39.60;;;;;;5074264;28;19968;-57
2024/01/07 05:09:35;;;;;;;;;;;22.30;39.50;;;;;;5074062;28;20011;-57
2024/01/07 05:12:02;;;;;;;;;;;22.30;39.50;;;;;;5073433;28;19924;-57
2024/01/07 05:14:29;;;;;;;;;;;22.40;39.50;;;;;;5074044;28;19924;-56
2024/01/07 05:16:56;;;;;;;;;;;22.40;39.40;;;;;;5074237;28;20011;-56
2024/01/07 05:19:23;;;;;;;;;;;22.40;39.40;;;;;;5074475;28;20340;-56
2024/01/07 05:21:50;;;;;;;;;;;22.40;39.30;;;;;;5074181;28;19970;-55
2024/01/07 05:24:17;;;;;;;;;;;22.40;39.20;;;;;;5074008;28;19974;-55
2024/01/07 05:26:44;;;;;;;;;;;22.40;39.20;;;;;;5074231;28;19925;-57
2024/01/07 05:29:12;;;;;;;;;;;22.40;39.20;;;;;;5073924;28;20366;-56
2024/01/07 05:31:39;;;;;;;;;;;22.40;39.20;;;;;;5073820;28;20373;-56
2024/01/07 05:34:06;;;;;;;;;;;22.40;39.20;;;;;;5074268;28;20317;-57
2024/01/07 05:36:33;;;;;;;;;;;22.40;39.20;;;;;;5073790;28;19931;-56
2024/01/07 05:39:01;;;;;;;;;;;22.40;39.10;;;;;;5073782;28;20369;-56
2024/01/07 05:41:28;;;;;;;;;;;22.40;39.10;;;;;;5074196;28;20332;-56
2024/01/07 05:43:55;;;;;;;;;;;22.40;39.10;;;;;;5073503;28;19932;-57
2024/01/07 05:46:22;;;;;;;;;;;22.40;39.00;;;;;;5074249;28;19931;-57
2024/01/07 05:48:49;;;;;;;;;;;22.50;39.00;;;;;;5073863;28;19924;-57
2024/01/07 05:51:16;;;;;;;;;;;22.50;39.00;;;;;;5073399;28;19929;-55
2024/01/07 05:53:44;;;;;;;;;;;22.50;38.90;;;;;;5073392;28;19950;-56
2024/01/07 05:56:11;;;;;;;;;;;22.50;39.00;;;;;;5074097;28;19924;-54
2024/01/07 05:58:38;;;;;;;;;;;22.50;38.90;;;;;;5073598;28;19932;-55
2024/01/07 06:01:07;;;;;;;;;;;22.50;38.80;;;;;;5074057;28;19924;-55
2024/01/07 06:03:35;;;;;;;;;;;22.50;38.80;;;;;;5073537;28;19932;-56
2024/01/07 06:06:02;;;;;;;;;;;22.60;38.80;;;;;;5073913;28;19932;-56
2024/01/07 06:08:29;;;;;;;;;;;22.60;38.80;;;;;;5073384;28;20344;-57
2024/01/07 06:10:56;;;;;;;;;;;22.60;38.80;;;;;;5073447;28;20444;-55
2024/01/07 06:13:23;;;;;;;;;;;22.60;38.70;;;;;;5073388;28;19931;-56
2024/01/07 06:15:52;;;;;;;;;;;22.60;38.70;;;;;;5073269;28;19931;-56
2024/01/07 06:18:19;;;;;;;;;;;22.60;39.20;;;;;;5073178;28;20415;-56
2024/01/07 06:20:46;;;;;;;;;;;22.60;38.60;;;;;;5073327;28;20023;-57
2024/01/07 06:23:13;;;;;;;;;;;22.60;38.60;;;;;;5072506;28;19929;-56
2024/01/07 06:25:40;;;;;;;;;;;22.60;38.50;;;;;;5073410;28;19979;-53
2024/01/07 06:28:08;;;;;;;;;;;22.60;38.50;;;;;;5073535;28;19924;-56
2024/01/07 06:30:35;;;;;;;;;;;22.60;38.40;;;;;;5073148;28;20286;-56
2024/01/07 06:33:02;;;;;;;;;;;22.60;38.40;;;;;;5073151;28;19929;-56
2024/01/07 06:35:30;;;;;;;;;;;22.60;38.40;;;;;;5073367;28;20278;-57
2024/01/07 06:37:57;;;;;;;;;;;22.70;38.40;;;;;;5073346;28;20403;-54
2024/01/07 06:40:25;;;;;;;;;;;22.60;38.30;;;;;;5073183;28;20019;-55
2024/01/07 06:42:51;;;;;;;;;;;22.70;38.40;;;;;;5073372;28;19931;-56
2024/01/07 06:45:18;;;;;;;;;;;22.70;38.30;;;;;;5072942;28;20423;-56
2024/01/07 06:47:46;;;;;;;;;;;22.70;38.30;;;;;;5073110;28;19932;-55
2024/01/07 06:50:13;;;;;;;;;;;22.70;38.20;;;;;;5055236;28;20404;-56
2024/01/07 06:52:40;;;;;;;;;;;22.70;38.20;;;;;;5073389;28;19925;-56
2024/01/07 06:55:08;;;;;;;;;;;22.70;38.10;;;;;;5072936;28;19928;-57
2024/01/07 06:57:35;;;;;;;;;;;22.70;38.10;;;;;;5072805;28;19970;-57
2024/01/07 07:00:02;;;;;;;;;;;22.70;38.00;;;;;;5073229;28;19924;-56
2024/01/07 07:02:30;;;;;;;;;;;22.70;38.00;;;;;;5072849;28;20019;-56
2024/01/07 07:04:57;;;;;;;;;;;22.70;38.00;;;;;;5072762;28;20396;-56
2024/01/07 07:07:24;;;;;;;;;;;22.70;37.90;;;;;;5072821;28;19928;-57
2024/01/07 07:09:51;;;;;;;;;;;22.70;37.90;;;;;;5072954;28;20285;-55
2024/01/07 07:12:19;;;;;;;;;;;22.70;37.80;;;;;;5073223;28;20327;-57
2024/01/07 07:14:46;;;;;;;;;;;22.70;37.80;;;;;;5072422;28;19924;-57
2024/01/07 07:17:14;;;;;;;;;;;22.80;37.80;;;;;;5072633;28;19931;-56
2024/01/07 07:19:40;;;;;;;;;;;22.70;37.80;;;;;;5073019;28;20335;-55
2024/01/07 07:22:11;;;;;;;;;;;22.80;37.80;;;;;;5055652;28;19929;-56
2024/01/07 07:24:41;;;;;;;;;;;22.70;37.70;;;;;;5072533;28;20389;-54
2024/01/07 07:27:08;;;;;;;;;;;22.70;37.60;;;;;;5072910;28;19924;-56
2024/01/07 07:29:35;;;;;;;;;;;22.70;37.70;;;;;;5072303;28;19925;-56
2024/01/07 07:32:02;;;;;;;;;;;22.80;37.60;;;;;;5072427;28;19970;-57
2024/01/07 07:34:30;;;;;;;;;;;22.70;37.60;;;;;;5072420;28;19970;-57
2024/01/07 07:36:57;;;;;;;;;;;22.70;37.50;;;;;;5075796;28;20373;-57
2024/01/07 07:39:24;;;;;;;;;;;22.80;37.50;;;;;;5076095;28;19928;-57
2024/01/07 07:41:51;;;;;;;;;;;22.80;37.50;;;;;;5076579;28;19963;-57
2024/01/07 07:44:17;;;;;;;;;;;22.80;37.50;;;;;;5076245;28;19929;-56
2024/01/07 07:46:44;;;;;;;;;;;22.80;37.50;;;;;;5058178;28;20377;-57
2024/01/07 07:49:11;;;;;;;;;;;22.70;37.40;;;;;;5076203;28;19931;-57
2024/01/07 07:51:38;;;;;;;;;;;22.70;37.40;;;;;;5076126;28;19924;-57
2024/01/07 07:54:05;;;;;;;;;;;22.80;37.40;;;;;;5075695;28;19929;-54
2024/01/07 07:56:32;;;;;;;;;;;22.70;37.30;;;;;;5075944;28;20058;-56
2024/01/07 07:58:59;;;;;;;;;;;22.80;37.30;;;;;;5075574;28;19928;-56
2024/01/07 08:01:26;;;;;;;;;;;22.80;37.30;;;;;;5075707;28;20337;-56
2024/01/07 08:03:53;;;;;;;;;;;22.80;37.20;;;;;;5075598;28;19931;-57
2024/01/07 08:06:20;;;;;;;;;;;22.80;37.10;;;;;;5075600;28;19924;-56
2024/01/07 08:08:47;;;;;;;;;;;22.80;37.10;;;;;;5075280;28;19924;-56
2024/01/07 08:11:14;;;;;;;;;;;22.80;37.10;;;;;;5075756;28;19924;-55
2024/01/07 08:13:41;;;;;;;;;;;22.80;37.10;;;;;;5075407;28;20560;-56
2024/01/07 08:16:10;;;;;;;;;;;22.80;37.00;;;;;;5075644;28;19936;-55
2024/01/07 08:18:37;;;;;;;;;;;22.80;37.00;;;;;;5075399;28;20320;-57
2024/01/07 08:21:04;;;;;;;;;;;22.80;36.90;;;;;;5075635;28;19925;-56
2024/01/07 08:23:31;;;;;;;;;;;22.80;36.90;;;;;;5075179;28;20551;-56
2024/01/07 08:25:58;;;;;;;;;;;22.80;36.80;;;;;;5075537;28;19928;-54
2024/01/07 08:28:25;;;;;;;;;;;22.80;36.90;;;;;;5075474;28;20306;-56
2024/01/07 08:30:53;;;;;;;;;;;22.80;36.80;;;;;;5075382;28;20035;-56
2024/01/07 08:33:20;;;;;;;;;;;22.80;36.80;;;;;;5075338;28;19928;-55
2024/01/07 08:35:47;;;;;;;;;;;22.80;36.80;;;;;;5075085;28;19929;-55
2024/01/07 08:38:14;;;;;;;;;;;22.80;36.70;;;;;;5057506;28;20361;-56
2024/01/07 08:40:42;;;;;;;;;;;22.80;36.60;;;;;;5075321;28;19924;-54
2024/01/07 08:43:08;;;;;;;;;;;22.80;36.60;;;;;;5074692;28;19959;-57
2024/01/07 08:45:35;;;;;;;;;;;22.80;36.60;;;;;;5074880;28;19924;-56
2024/01/07 08:48:03;;;;;;;;;;;22.80;36.60;;;;;;5074661;28;20374;-57
2024/01/07 08:50:30;;;;;;;;;;;22.80;36.50;;;;;;5074962;28;19924;-56
2024/01/07 08:52:57;;;;;;;;;;;22.80;36.50;;;;;;5074734;28;19925;-56
2024/01/07 08:55:24;;;;;;;;;;;22.80;36.50;;;;;;5074478;28;19931;-57
2024/01/07 08:57:51;;;;;;;;;;;22.80;36.50;;;;;;5074515;28;20015;-57
2024/01/07 09:00:19;;;;;;;;;;;22.80;36.50;;;;;;5074925;28;20328;-55
2024/01/07 09:02:46;;;;;;;;;;;22.80;36.40;;;;;;5074657;28;19924;-55
2024/01/07 09:05:13;;;;;;;;;;;22.80;36.40;;;;;;5074415;28;20327;-57
2024/01/07 09:07:40;;;;;;;;;;;22.80;36.40;;;;;;5074452;28;20031;-55
2024/01/07 09:10:10;;;;;;;;;;;22.80;36.40;;;;;;5056817;28;20356;-56
2024/01/07 09:12:38;;;;;;;;;;;22.80;36.30;;;;;;5074454;28;19928;-57
2024/01/07 09:15:08;;;;;;;;;;;22.80;36.30;;;;;;5074002;28;19967;-56
2024/01/07 09:17:37;;;;;;;;;;;22.80;36.20;;;;;;5075746;28;20002;-60
2024/01/07 09:20:08;;;;;;;;;;;22.80;36.40;;;;;;5077655;28;20439;-60
2024/01/07 09:22:35;;;;;;;;;;;22.80;36.20;;;;;;5077720;28;20298;-60
2024/01/07 09:25:03;;;;;;;;;;;22.80;36.20;;;;;;5077669;28;19929;-60
2024/01/07 09:27:31;;;;;;;;;;;22.80;36.20;;;;;;5077396;28;19978;-60
2024/01/07 09:29:57;;;;;;;;;;;22.80;36.10;;;;;;5077213;28;20400;-60
2024/01/07 09:32:24;;;;;;;;;;;22.80;36.10;;;;;;5059485;28;19924;-61
2024/01/07 09:34:51;;;;;;;;;;;22.80;36.10;;;;;;5077256;28;19928;-60
2024/01/07 09:37:18;;;;;;;;;;;22.80;36.10;;;;;;5077236;28;19935;-60
2024/01/07 09:39:46;;;;;;;;;;;22.80;36.00;;;;;;5076990;28;19931;-60
2024/01/07 09:42:14;;;;;;;;;;;22.80;36.00;;;;;;5077367;28;19924;-60
2024/01/07 09:44:42;;;;;;;;;;;22.80;36.00;;;;;;5077095;28;19970;-61
2024/01/07 09:47:15;;;;;;;;;;;22.80;36.00;;;;;;5077129;28;19968;-60
2024/01/07 09:49:43;;;;;;;;;;;22.80;36.00;;;;;;5076742;28;19925;-61
2024/01/07 09:52:11;;;;;;;;;;;22.80;35.90;;;;;;5077037;28;19944;-60
2024/01/07 09:54:39;;;;;;;;;;;22.80;35.90;;;;;;5076816;28;19928;-61
2024/01/07 09:57:08;;;;;;;;;;;22.80;35.90;;;;;;5076944;28;19975;-61
2024/01/07 09:59:36;;;;;;;;;;;22.80;35.80;;;;;;5076097;28;19925;-61
2024/01/07 10:02:03;;;;;;;;;;;22.80;35.80;;;;;;5077108;28;19991;-61
2024/01/07 10:04:31;;;;;;;;;;;22.90;35.90;;;;;;5077063;28;19924;-61
2024/01/07 10:06:58;;;;;;;;;;;22.80;35.80;;;;;;5077159;28;19951;-61
2024/01/07 10:09:30;;;;;;;;;;;22.90;35.90;;;;;;5076119;28;19929;-61
2024/01/07 10:11:57;;;;;;;;;;;22.90;35.80;;;;;;5077142;28;19925;-62
2024/01/07 10:14:27;;;;;;;;;;;22.80;35.70;;;;;;5076668;28;20370;-61
2024/01/07 10:16:58;;;;;;;;;;;22.80;35.70;;;;;;5076634;28;19931;-62
2024/01/07 10:19:25;;;;;;;;;;;22.90;35.70;;;;;;5076375;28;20301;-61
2024/01/07 10:22:00;;;;;;;;;;;22.90;35.70;;;;;;5076606;28;19932;-62
2024/01/07 10:24:34;;;;;;;;;;;22.90;35.70;;;;;;5076496;28;19924;-62
2024/01/07 10:27:03;;;;;;;;;;;22.80;35.60;;;;;;5076423;28;20318;-61
2024/01/07 10:29:30;;;;;;;;;;;22.80;35.60;;;;;;5076474;28;19924;-61
2024/01/07 10:31:58;;;;;;;;;;;22.80;35.60;;;;;;5076543;28;19986;-62
2024/01/07 10:34:26;;;;;;;;;;;22.80;35.50;;;;;;5076366;28;20297;-61
2024/01/07 10:36:54;;;;;;;;;;;22.80;35.50;;;;;;5075026;28;19939;-57
2024/01/07 10:39:23;;;;;;;;;;;22.80;35.50;;;;;;5074335;28;19925;-61
2024/01/07 10:41:53;;;;;;;;;;;22.80;35.50;;;;;;5074772;28;19978;-58
2024/01/07 10:44:20;;;;;;;;;;;22.80;35.50;;;;;;5074641;28;19924;-56
2024/01/07 10:46:48;;;;;;;;;;;22.80;35.50;;;;;;5058087;28;19925;-60
2024/01/07 10:49:20;;;;;;;;;;;22.80;35.60;;;;;;5076051;28;19924;-53
2024/01/07 10:52:04;;;;;;;;;;;22.90;35.80;;;;;;5075406;28;19924;-61
2024/01/07 10:54:33;;;;;;;;;;;22.80;35.70;;;;;;5075466;28;20331;-61
2024/01/07 10:57:14;;;;;;;;;;;22.80;35.60;;;;;;5075790;28;19978;-61
2024/01/07 10:59:41;;;;;;;;;;;22.80;35.50;;;;;;5074512;28;19983;-61
2024/01/07 11:02:10;;;;;;;;;;;22.80;35.50;;;;;;5075156;28;20347;-61
2024/01/07 11:04:41;;;;;;;;;;;22.80;35.50;;;;;;5075057;28;19939;-57
2024/01/07 11:07:24;;;;;;;;;;;22.80;35.50;;;;;;5074909;28;19929;-57
2024/01/07 11:10:11;;;;;;;;;;;22.80;35.50;;;;;;5073499;28;20008;-61
2024/01/07 11:12:39;;;;;;;;;;;22.80;35.50;;;;;;5064097;28;19930;-58
2024/01/07 11:15:06;;;;;;;;;;;22.80;35.30;;;;;;5078575;28;19928;-61
2024/01/07 11:17:43;;;;;;;;;;;22.80;35.30;;;;;;5078946;28;19928;-56
2024/01/07 11:20:14;;;;;;;;;;;22.80;35.30;;;;;;5078465;28;20007;-61
2024/01/07 11:22:41;;;;;;;;;;;22.80;35.30;;;;;;5078757;28;19930;-61
2024/01/07 11:25:27;;;;;;;;;;;22.80;35.20;;;;;;5077931;28;19924;-60
2024/01/07 11:27:56;;;;;;;;;;;22.80;35.20;;;;;;5078786;28;19930;-60
2024/01/07 11:30:22;;;;;;;;;;;22.80;35.20;;;;;;5078231;28;19924;-53
2024/01/07 11:32:56;;;;;;;;;;;22.80;35.20;;;;;;5078410;28;19925;-60
2024/01/07 11:35:43;;;;;;;;;;;22.80;35.70;;;;;;5078355;28;19929;-53
2024/01/07 11:38:10;;;;;;;;;;;22.80;35.20;;;;;;5079099;28;19929;-60
2024/01/07 11:40:37;;;;;;;;;;;22.80;35.20;;;;;;5077960;28;19928;-49
2024/01/07 11:43:04;;;;;;;;;;;22.80;35.10;;;;;;5063829;28;19924;-60
2024/01/07 11:45:31;;;;;;;;;;;22.80;35.10;;;;;;5077974;28;19931;-60
2024/01/07 11:47:58;;;;;;;;;;;22.70;35.00;;;;;;5078954;28;19929;-54
2024/01/07 11:50:28;;;;;;;;;;;22.80;35.10;;;;;;5078264;28;19925;-60
2024/01/07 11:52:55;;;;;;;;;;;22.70;35.00;;;;;;5077843;28;19986;-60
2024/01/07 11:55:24;;;;;;;;;;;22.80;35.10;;;;;;5077707;28;20027;-60
2024/01/07 11:57:52;;;;;;;;;;;22.80;35.00;;;;;;5077901;28;19924;-60
2024/01/07 12:00:19;;;;;;;;;;;22.70;35.00;;;;;;5077861;28;19928;-61
2024/01/07 12:02:46;;;;;;;;;;;22.70;35.00;;;;;;5077955;28;19924;-51
2024/01/07 12:05:15;;;;;;;;;;;22.70;35.00;;;;;;5077643;28;19964;-61
2024/01/07 12:07:42;;;;;;;;;;;22.70;35.00;;;;;;5077803;28;19924;-61
2024/01/07 12:10:13;;;;;;;;;;;22.70;35.00;;;;;;5078057;28;19924;-53
2024/01/07 12:12:41;;;;;;;;;;;22.70;35.00;;;;;;5059687;28;19924;-53
2024/01/07 12:15:08;;;;;;;;;;;22.70;35.00;;;;;;5077457;28;20788;-60
2024/01/07 12:17:35;;;;;;;;;;;22.70;35.00;;;;;;5059995;28;20356;-60
2024/01/07 12:20:04;;;;;;;;;;;22.70;35.00;;;;;;5077404;28;19925;-60
2024/01/07 12:22:31;;;;;;;;;;;22.70;34.90;;;;;;5077102;28;20549;-60
2024/01/07 12:25:05;;;;;;;;;;;22.70;34.90;;;;;;5077251;28;19967;-50
2024/01/07 12:27:34;;;;;;;;;;;22.70;34.90;;;;;;5076766;28;20271;-55
2024/01/07 12:30:02;;;;;;;;;;;22.70;34.90;;;;;;5077867;28;19924;-60
2024/01/07 12:32:32;;;;;;;;;;;22.70;34.90;;;;;;5077475;28;19932;-60
2024/01/07 12:34:59;;;;;;;;;;;22.70;34.80;;;;;;5077567;28;19932;-60
2024/01/07 12:37:27;;;;;;;;;;;22.70;34.80;;;;;;5058788;28;19982;-50
2024/01/07 12:39:54;;;;;;;;;;;22.70;34.90;;;;;;5077345;28;19925;-57
2024/01/07 12:42:23;;;;;;;;;;;22.70;34.90;;;;;;5077393;28;19924;-54
2024/01/07 12:44:50;;;;;;;;;;;22.70;34.90;;;;;;5077372;28;20407;-54
2024/01/07 12:47:17;;;;;;;;;;;22.70;34.80;;;;;;5076740;28;20023;-55
2024/01/07 12:49:44;;;;;;;;;;;22.70;34.90;;;;;;5077614;28;19934;-55
2024/01/07 12:52:11;;;;;;;;;;;22.60;35.30;;;;;;5076937;28;19925;-55
2024/01/07 12:54:39;;;;;;;;;;;22.70;34.80;;;;;;5077026;28;20393;-60
2024/01/07 12:57:06;;;;;;;;;;;22.70;34.80;;;;;;5076756;28;19928;-60
2024/01/07 12:59:33;;;;;;;;;;;22.70;34.80;;;;;;5077052;28;19924;-51
2024/01/07 13:02:00;;;;;;;;;;;22.70;34.80;;;;;;5077385;28;19928;-53
2024/01/07 13:04:27;;;;;;;;;;;22.70;34.80;;;;;;5077012;28;19924;-54
2024/01/07 13:06:54;;;;;;;;;;;22.70;34.80;;;;;;5077134;28;19936;-55
2024/01/07 13:09:21;;;;;;;;;;;22.70;34.80;;;;;;5076277;28;20027;-54
2024/01/07 13:11:48;;;;;;;;;;;22.70;34.80;;;;;;5076739;28;19931;-61
2024/01/07 13:14:15;;;;;;;;;;;22.70;34.80;;;;;;5076245;28;19931;-61
2024/01/07 13:16:42;;;;;;;;;;;22.70;34.80;;;;;;5076674;28;20014;-61
2024/01/07 13:19:10;;;;;;;;;;;22.60;34.70;;;;;;5076965;28;20373;-61
2024/01/07 13:21:38;;;;;;;;;;;22.70;34.80;;;;;;5076749;28;19924;-61
2024/01/07 13:24:08;;;;;;;;;;;22.70;34.80;;;;;;5077083;28;19970;-61
2024/01/07 13:26:35;;;;;;;;;;;22.70;34.70;;;;;;5076370;28;19924;-61
2024/01/07 13:29:03;;;;;;;;;;;22.60;34.50;;;;;;5076748;28;19955;-61
2024/01/07 13:31:30;;;;;;;;;;;22.60;34.50;;;;;;5076766;28;19946;-61
2024/01/07 13:33:57;;;;;;;;;;;22.60;34.70;;;;;;5075605;28;19924;-61
2024/01/07 13:36:24;;;;;;;;;;;22.60;34.50;;;;;;5076851;28;19947;-61
2024/01/07 13:38:51;;;;;;;;;;;22.60;34.50;;;;;;5077267;28;19967;-61
2024/01/07 13:41:18;;;;;;;;;;;22.60;34.50;;;;;;5077463;28;19959;-61
2024/01/07 13:43:45;;;;;;;;;;;22.60;34.50;;;;;;5077236;28;19928;-61
2024/01/07 13:46:12;;;;;;;;;;;22.60;34.40;;;;;;5076541;28;19978;-61
2024/01/07 13:48:41;;;;;;;;;;;22.60;34.40;;;;;;5077129;28;19982;-61
2024/01/07 13:51:09;;;;;;;;;;;22.60;34.40;;;;;;5077041;28;19991;-61
2024/01/07 13:53:36;;;;;;;;;;;22.60;34.30;;;;;;5077348;28;19959;-61
2024/01/07 13:56:02;;;;;;;;;;;22.60;34.30;;;;;;5077097;28;19924;-60
2024/01/07 13:58:29;;;;;;;;;;;22.60;34.30;;;;;;5076864;28;19935;-60
2024/01/07 14:00:56;;;;;;;;;;;22.60;34.30;;;;;;5076799;28;19925;-60
2024/01/07 14:03:24;;;;;;;;;;;22.60;34.20;;;;;;5076899;28;20389;-61
2024/01/07 14:05:52;;;;;;;;;;;22.60;34.20;;;;;;5076939;28;19925;-60
2024/01/07 14:08:19;;;;;;;;;;;22.60;34.20;;;;;;5076864;28;20409;-61
2024/01/07 14:10:45;;;;;;;;;;;22.60;34.20;;;;;;5076712;28;20015;-61
2024/01/07 14:13:12;;;;;;;;;;;22.60;34.20;;;;;;5058773;28;19971;-61
2024/01/07 14:15:39;;;;;;;;;;;22.60;34.20;;;;;;5076584;28;19928;-61
2024/01/07 14:18:07;;;;;;;;;;;22.60;34.20;;;;;;5076635;28;19925;-61